Time;durP1;ratioP1;P1;durP2;ratioP2;P2;SDS_P1;SDS_P2;PMS_P1;PMS_P2;Temp;Humidity;BMP_temperature;BMP_pressure;BME280_temperature;BME280_humidity;BME280_pressure;Samples;Min_cycle;Max_cycle;Signal;HPM_P1;HPM_P2
2023/04/19 00:01:23;;;;;;;31.38;14.95;;;8.70;99.90;;;;;;4990526;28;20057;-71
2023/04/19 00:03:49;;;;;;;36.65;15.70;;;8.70;99.90;;;;;;4989933;28;20522;-71
2023/04/19 00:06:16;;;;;;;31.45;14.65;;;8.70;99.90;;;;;;4989866;28;20049;-70
2023/04/19 00:08:42;;;;;;;31.15;14.52;;;8.60;99.90;;;;;;4987696;28;20122;-71
2023/04/19 00:11:08;;;;;;;33.13;14.65;;;8.60;99.90;;;;;;4988056;28;20113;-70
2023/04/19 00:13:34;;;;;;;32.65;14.35;;;8.60;99.90;;;;;;4988299;28;20030;-71
2023/04/19 00:16:00;;;;;;;34.08;14.70;;;8.60;99.90;;;;;;4989860;28;20494;-71
2023/04/19 00:18:25;;;;;;;31.38;14.80;;;8.60;99.90;;;;;;4989701;28;20030;-71
2023/04/19 00:20:51;;;;;;;29.85;14.52;;;8.60;99.90;;;;;;4988416;28;20042;-71
2023/04/19 00:23:17;;;;;;;31.20;14.98;;;8.60;99.90;;;;;;4971513;28;20506;-70
2023/04/19 00:25:44;;;;;;;34.35;15.57;;;8.50;99.90;;;;;;4988185;28;20026;-70
2023/04/19 00:28:10;;;;;;;39.88;15.05;;;8.50;99.90;;;;;;4990392;28;20058;-71
2023/04/19 00:30:36;;;;;;;34.13;15.32;;;8.50;99.90;;;;;;4987598;28;20770;-71
2023/04/19 00:33:01;;;;;;;34.15;16.10;;;8.50;99.90;;;;;;4988873;28;20479;-71
2023/04/19 00:35:27;;;;;;;32.78;14.70;;;8.50;99.90;;;;;;4989445;28;20119;-70
2023/04/19 00:37:53;;;;;;;34.28;14.95;;;8.50;99.90;;;;;;4986242;28;20065;-70
2023/04/19 00:40:18;;;;;;;32.05;14.75;;;8.50;99.90;;;;;;4988765;28;20042;-71
2023/04/19 00:42:44;;;;;;;35.08;15.07;;;8.50;99.90;;;;;;4988507;28;20073;-72
2023/04/19 00:45:10;;;;;;;31.77;15.77;;;8.60;99.90;;;;;;4988629;28;20039;-71
2023/04/19 00:47:37;;;;;;;32.95;15.25;;;8.50;99.90;;;;;;4988467;28;20498;-71
2023/04/19 00:50:03;;;;;;;34.00;15.27;;;8.60;99.90;;;;;;4987782;28;20030;-72
2023/04/19 00:52:29;;;;;;;31.65;13.80;;;8.60;99.90;;;;;;4989568;28;20038;-73
2023/04/19 00:54:56;;;;;;;33.65;14.95;;;8.60;99.90;;;;;;4988153;28;20034;-72
2023/04/19 00:57:23;;;;;;;30.25;14.70;;;8.60;99.90;;;;;;4989017;28;20136;-71
2023/04/19 00:59:50;;;;;;;34.83;15.07;;;8.50;99.90;;;;;;4986364;28;20030;-71
2023/04/19 01:02:16;;;;;;;30.50;14.82;;;8.50;99.90;;;;;;4985945;28;20495;-71
2023/04/19 01:04:41;;;;;;;32.08;14.50;;;8.50;99.90;;;;;;4988328;28;20096;-72
2023/04/19 01:07:08;;;;;;;35.58;15.48;;;8.50;99.90;;;;;;4987682;28;20406;-71
2023/04/19 01:09:33;;;;;;;36.00;15.35;;;8.50;99.90;;;;;;4988019;28;20030;-72
2023/04/19 01:12:01;;;;;;;35.60;14.68;;;8.50;99.90;;;;;;4986703;28;20485;-71
2023/04/19 01:14:26;;;;;;;32.85;15.27;;;8.50;99.90;;;;;;4988937;28;20185;-71
2023/04/19 01:16:53;;;;;;;30.63;14.65;;;8.40;99.90;;;;;;4987595;28;20030;-71
2023/04/19 01:19:18;;;;;;;32.90;15.25;;;8.50;99.90;;;;;;4988894;28;20459;-72
2023/04/19 01:21:45;;;;;;;32.42;14.88;;;8.50;99.90;;;;;;4988726;28;20041;-71
2023/04/19 01:24:10;;;;;;;35.40;15.52;;;8.40;99.90;;;;;;4989385;28;20057;-71
2023/04/19 01:26:36;;;;;;;32.10;15.32;;;8.40;99.90;;;;;;4987750;28;20038;-72
2023/04/19 01:29:02;;;;;;;33.22;15.63;;;8.40;99.90;;;;;;4988887;28;20038;-71
2023/04/19 01:31:28;;;;;;;32.47;15.25;;;8.40;99.90;;;;;;4989197;28;20037;-71
2023/04/19 01:33:53;;;;;;;34.95;15.55;;;8.40;99.90;;;;;;4987767;28;20460;-71
2023/04/19 01:36:19;;;;;;;30.58;14.23;;;8.40;99.90;;;;;;4989154;28;20030;-71
2023/04/19 01:38:46;;;;;;;33.50;15.70;;;8.40;99.90;;;;;;4986928;28;20089;-72
2023/04/19 01:41:12;;;;;;;34.70;15.13;;;8.50;99.90;;;;;;4987010;28;20392;-71
2023/04/19 01:43:38;;;;;;;32.30;15.48;;;8.50;99.90;;;;;;4987665;28;20038;-71
2023/04/19 01:46:04;;;;;;;35.40;15.35;;;8.50;99.90;;;;;;4989171;28;20073;-69
2023/04/19 01:48:29;;;;;;;33.72;15.68;;;8.40;99.90;;;;;;4988928;28;20037;-71
2023/04/19 01:50:55;;;;;;;30.55;14.93;;;8.50;99.90;;;;;;4988299;28;20038;-70
2023/04/19 01:53:20;;;;;;;32.67;15.82;;;8.50;99.90;;;;;;4988899;28;20368;-72
2023/04/19 01:55:46;;;;;;;32.30;15.90;;;8.50;99.90;;;;;;4985726;28;20108;-70
2023/04/19 01:58:12;;;;;;;37.78;16.83;;;8.40;99.90;;;;;;4984483;28;20088;-70
2023/04/19 02:00:37;;;;;;;32.33;15.15;;;8.40;99.90;;;;;;4988243;28;20513;-71
2023/04/19 02:03:03;;;;;;;34.40;15.63;;;8.40;99.90;;;;;;4988005;28;20459;-72
2023/04/19 02:05:29;;;;;;;35.20;15.50;;;8.40;99.90;;;;;;4989039;28;20033;-71
2023/04/19 02:07:54;;;;;;;37.72;16.30;;;8.40;99.90;;;;;;4987773;28;20611;-72
2023/04/19 02:10:21;;;;;;;35.95;16.95;;;8.40;99.90;;;;;;4985759;28;20152;-70
2023/04/19 02:12:47;;;;;;;32.50;15.18;;;8.40;99.90;;;;;;4981675;28;20388;-71
2023/04/19 02:15:13;;;;;;;33.03;16.48;;;8.40;99.90;;;;;;4987021;28;20121;-71
2023/04/19 02:17:39;;;;;;;33.53;15.32;;;8.40;99.90;;;;;;4987374;28;20029;-71
2023/04/19 02:20:07;;;;;;;33.15;15.70;;;8.40;99.90;;;;;;4985652;28;20368;-72
2023/04/19 02:22:32;;;;;;;36.35;15.40;;;8.40;99.90;;;;;;4988504;28;20042;-72
2023/04/19 02:24:58;;;;;;;32.85;14.77;;;8.50;99.90;;;;;;4982647;28;20502;-69
2023/04/19 02:27:24;;;;;;;34.42;15.40;;;8.50;99.90;;;;;;4984177;28;20475;-71
2023/04/19 02:29:50;;;;;;;38.00;16.27;;;8.50;99.90;;;;;;4980948;28;20058;-72
2023/04/19 02:32:15;;;;;;;35.65;16.35;;;8.50;99.90;;;;;;4986992;28;20497;-71
2023/04/19 02:34:41;;;;;;;30.88;14.82;;;8.50;99.90;;;;;;4986463;28;20046;-72
2023/04/19 02:37:07;;;;;;;34.17;16.33;;;8.50;99.90;;;;;;4987361;28;20045;-72
2023/04/19 02:39:33;;;;;;;31.23;15.50;;;8.50;99.90;;;;;;4994707;28;20040;-72
2023/04/19 02:41:59;;;;;;;31.65;15.07;;;8.50;99.90;;;;;;4991512;28;20034;-71
2023/04/19 02:44:26;;;;;;;32.00;15.38;;;8.50;99.90;;;;;;4988757;28;20030;-71
2023/04/19 02:46:52;;;;;;;31.63;14.75;;;8.50;99.90;;;;;;4968445;28;20038;-72
2023/04/19 02:49:18;;;;;;;37.85;15.85;;;8.40;99.90;;;;;;4987965;28;20031;-71
2023/04/19 02:51:45;;;;;;;33.05;14.65;;;8.40;99.90;;;;;;4987880;28;20041;-71
2023/04/19 02:54:11;;;;;;;31.52;15.15;;;8.40;99.90;;;;;;4986199;28;20035;-71
2023/04/19 02:56:37;;;;;;;33.28;15.25;;;8.40;99.90;;;;;;4986685;28;20038;-74
2023/04/19 02:59:03;;;;;;;30.33;15.15;;;8.30;99.90;;;;;;4985223;28;20035;-71
2023/04/19 03:01:29;;;;;;;33.75;15.60;;;8.30;99.90;;;;;;4988712;28;20098;-71
2023/04/19 03:03:55;;;;;;;32.65;16.48;;;8.40;99.90;;;;;;4991118;28;20722;-71
2023/04/19 03:06:20;;;;;;;32.15;14.88;;;8.40;99.90;;;;;;4991589;28;20038;-71
2023/04/19 03:08:46;;;;;;;34.35;15.43;;;8.30;99.90;;;;;;4991214;28;20063;-72
2023/04/19 03:11:13;;;;;;;37.25;15.85;;;8.40;99.90;;;;;;4991518;28;20494;-70
2023/04/19 03:13:39;;;;;;;35.72;15.25;;;8.30;99.90;;;;;;4991460;28;20026;-72
2023/04/19 03:16:05;;;;;;;32.13;14.50;;;8.30;99.90;;;;;;4973641;28;20506;-71
2023/04/19 03:18:31;;;;;;;32.75;16.38;;;8.30;99.90;;;;;;4990605;28;20045;-71
2023/04/19 03:20:57;;;;;;;31.75;15.23;;;8.30;99.90;;;;;;4991034;28;20685;-71
2023/04/19 03:23:22;;;;;;;34.13;14.93;;;8.40;99.90;;;;;;4986728;28;20043;-71
2023/04/19 03:25:48;;;;;;;33.35;15.18;;;8.40;99.90;;;;;;4971382;28;20035;-71
2023/04/19 03:28:14;;;;;;;34.08;15.45;;;8.40;99.90;;;;;;4972033;28;20023;-70
2023/04/19 03:30:40;;;;;;;34.63;15.77;;;8.40;99.90;;;;;;4971589;28;20365;-72
2023/04/19 03:33:05;;;;;;;32.97;14.70;;;8.30;99.90;;;;;;4989169;28;20070;-70
2023/04/19 03:35:31;;;;;;;32.05;14.75;;;8.20;99.90;;;;;;4991251;28;20089;-71
2023/04/19 03:37:57;;;;;;;33.47;15.88;;;8.20;99.90;;;;;;4989347;28;20432;-71
2023/04/19 03:40:22;;;;;;;32.92;15.13;;;8.20;99.90;;;;;;4989651;28;20037;-70
2023/04/19 03:42:48;;;;;;;31.48;14.38;;;8.20;99.90;;;;;;4988227;28;20093;-70
2023/04/19 03:45:14;;;;;;;30.75;14.13;;;8.10;99.90;;;;;;4990008;28;20898;-70
2023/04/19 03:47:40;;;;;;;29.17;13.95;;;8.20;99.90;;;;;;4989760;28;20045;-72
2023/04/19 03:50:06;;;;;;;31.60;14.85;;;8.20;99.90;;;;;;4989738;28;20058;-71
2023/04/19 03:52:32;;;;;;;32.58;15.15;;;8.10;99.90;;;;;;4985287;28;20487;-71
2023/04/19 03:54:58;;;;;;;29.55;14.20;;;8.10;99.90;;;;;;4970897;28;20050;-71
2023/04/19 03:57:23;;;;;;;35.22;15.82;;;8.10;99.90;;;;;;4983501;28;20058;-71
2023/04/19 03:59:49;;;;;;;31.77;15.00;;;8.10;99.90;;;;;;4990136;28;20116;-71
2023/04/19 04:02:14;;;;;;;34.08;15.25;;;8.10;99.90;;;;;;4989832;28;20034;-71
2023/04/19 04:04:40;;;;;;;32.38;14.23;;;8.10;99.90;;;;;;4990687;28;20035;-73
2023/04/19 04:07:06;;;;;;;34.40;15.52;;;8.00;99.90;;;;;;4989879;28;20491;-71
2023/04/19 04:09:31;;;;;;;33.42;14.80;;;8.00;99.90;;;;;;4985924;28;20415;-71
2023/04/19 04:11:57;;;;;;;30.10;14.43;;;8.00;99.90;;;;;;4985414;28;20035;-71
2023/04/19 04:14:23;;;;;;;32.08;15.30;;;8.00;99.90;;;;;;4986047;28;20050;-71
2023/04/19 04:16:48;;;;;;;36.22;15.77;;;7.90;99.90;;;;;;4988486;28;20109;-71
2023/04/19 04:19:14;;;;;;;31.30;14.48;;;8.00;99.90;;;;;;4988465;28;20569;-71
2023/04/19 04:21:40;;;;;;;29.83;13.98;;;8.00;99.90;;;;;;4988210;28;20053;-72
2023/04/19 04:24:06;;;;;;;31.02;14.50;;;8.00;99.90;;;;;;4978392;28;20030;-71
2023/04/19 04:26:32;;;;;;;31.73;14.45;;;8.00;99.90;;;;;;4989892;28;20387;-71
2023/04/19 04:29:00;;;;;;;30.00;14.55;;;8.10;99.90;;;;;;4968072;28;20122;-71
2023/04/19 04:31:26;;;;;;;30.85;14.55;;;8.10;99.90;;;;;;4977495;28;20817;-71
2023/04/19 04:33:53;;;;;;;33.60;14.50;;;8.00;99.90;;;;;;4988532;28;20099;-72
2023/04/19 04:36:19;;;;;;;32.13;14.68;;;8.00;99.90;;;;;;4990314;28;20118;-71
2023/04/19 04:38:45;;;;;;;31.70;14.30;;;8.00;99.90;;;;;;4970445;28;20042;-72
2023/04/19 04:41:11;;;;;;;30.35;13.68;;;7.90;99.90;;;;;;4989044;28;20416;-69
2023/04/19 04:43:38;;;;;;;31.35;15.32;;;8.00;99.90;;;;;;4981562;28;20061;-70
2023/04/19 04:46:04;;;;;;;33.90;14.65;;;8.00;99.90;;;;;;4987482;28;20061;-71
2023/04/19 04:48:30;;;;;;;32.88;13.95;;;7.90;99.90;;;;;;4982169;28;20053;-71
2023/04/19 04:50:56;;;;;;;34.20;15.07;;;7.90;99.90;;;;;;4988028;28;20042;-71
2023/04/19 04:53:24;;;;;;;35.97;15.07;;;7.90;99.90;;;;;;4987832;28;20042;-71
2023/04/19 04:55:50;;;;;;;50.60;20.65;;;7.90;99.90;;;;;;4988147;28;20058;-73
2023/04/19 04:58:15;;;;;;;34.08;16.23;;;7.90;99.90;;;;;;4987512;28;20125;-73
2023/04/19 05:00:41;;;;;;;35.13;16.60;;;7.90;99.90;;;;;;4986603;28;20035;-73
2023/04/19 05:03:07;;;;;;;41.55;19.35;;;7.90;99.90;;;;;;4982617;28;20038;-74
2023/04/19 05:05:32;;;;;;;32.83;15.57;;;7.90;99.90;;;;;;4985360;28;20041;-73
2023/04/19 05:07:58;;;;;;;30.10;14.20;;;7.90;99.90;;;;;;4985116;28;20437;-72
2023/04/19 05:10:24;;;;;;;37.42;15.70;;;7.90;99.90;;;;;;4988071;28;20022;-73
2023/04/19 05:12:49;;;;;;;47.03;17.60;;;7.90;99.90;;;;;;4967943;28;20041;-74
2023/04/19 05:15:15;;;;;;;70.95;26.48;;;7.90;99.90;;;;;;4986675;28;20030;-73
2023/04/19 05:17:41;;;;;;;69.88;23.48;;;7.90;99.90;;;;;;4988580;28;20026;-74
2023/04/19 05:20:07;;;;;;;65.55;23.73;;;7.90;99.90;;;;;;4987082;28;20482;-73
2023/04/19 05:22:33;;;;;;;80.05;27.52;;;7.90;99.90;;;;;;4987186;28;20509;-74
2023/04/19 05:24:59;;;;;;;74.75;25.95;;;8.00;99.90;;;;;;4982967;28;20038;-73
2023/04/19 05:27:24;;;;;;;75.45;25.50;;;8.10;99.90;;;;;;4970144;28;20030;-72
2023/04/19 05:29:50;;;;;;;59.85;22.45;;;8.10;99.90;;;;;;4985909;28;20026;-73
2023/04/19 05:32:16;;;;;;;46.15;19.17;;;8.10;99.90;;;;;;4988122;28;20678;-72
2023/04/19 05:34:42;;;;;;;33.95;14.85;;;8.10;99.90;;;;;;4988298;28;20088;-73
2023/04/19 05:37:07;;;;;;;34.17;15.38;;;8.10;99.90;;;;;;4986490;28;20034;-73
2023/04/19 05:39:33;;;;;;;41.53;17.20;;;8.00;99.90;;;;;;4984374;28;20398;-73
2023/04/19 05:41:59;;;;;;;35.35;16.33;;;8.00;99.90;;;;;;4988135;28;20041;-72
2023/04/19 05:44:24;;;;;;;37.45;16.45;;;8.10;99.90;;;;;;4988153;28;20030;-72
2023/04/19 05:46:50;;;;;;;34.50;15.57;;;8.10;99.90;;;;;;4988425;28;20631;-70
2023/04/19 05:49:16;;;;;;;38.13;16.35;;;8.20;99.90;;;;;;4988199;28;20120;-72
2023/04/19 05:51:41;;;;;;;60.08;22.15;;;8.20;99.90;;;;;;4988950;28;20124;-72
2023/04/19 05:54:11;;;;;;;61.78;22.17;;;8.30;99.90;;;;;;4987948;28;20638;-73
2023/04/19 05:56:37;;;;;;;35.28;15.45;;;8.30;99.90;;;;;;4989375;28;20085;-73
2023/04/19 05:59:02;;;;;;;40.92;16.40;;;8.30;99.90;;;;;;4987953;28;20034;-72
2023/04/19 06:01:28;;;;;;;49.65;19.33;;;8.30;99.90;;;;;;4987946;28;20396;-70
2023/04/19 06:03:54;;;;;;;44.75;17.65;;;8.40;99.90;;;;;;4986792;28;20088;-71
2023/04/19 06:06:22;;;;;;;35.35;15.07;;;8.40;99.90;;;;;;4988776;28;20043;-70
2023/04/19 06:08:48;;;;;;;36.83;16.30;;;8.40;99.90;;;;;;4988045;28;20352;-75
2023/04/19 06:11:13;;;;;;;35.47;15.82;;;8.50;99.90;;;;;;4988573;28;20035;-70
2023/04/19 06:13:39;;;;;;;35.97;15.65;;;8.50;99.90;;;;;;4988948;28;20602;-72
2023/04/19 06:16:05;;;;;;;48.28;19.08;;;8.60;99.90;;;;;;4970379;28;20031;-73
2023/04/19 06:18:31;;;;;;;52.75;20.20;;;8.70;99.90;;;;;;4987637;28;20479;-72
2023/04/19 06:20:56;;;;;;;41.35;15.80;;;8.80;99.90;;;;;;4988051;28;20038;-72
2023/04/19 06:23:22;;;;;;;34.72;15.05;;;8.80;99.90;;;;;;4987468;28;20045;-72
2023/04/19 06:25:48;;;;;;;39.53;16.77;;;8.90;99.90;;;;;;4988589;28;20035;-74
2023/04/19 06:28:13;;;;;;;33.20;13.98;;;9.00;99.90;;;;;;4988613;28;20027;-72
2023/04/19 06:30:39;;;;;;;44.88;21.75;;;9.00;99.90;;;;;;4987436;28;20030;-72
2023/04/19 06:33:05;;;;;;;45.10;18.67;;;9.10;99.90;;;;;;4986099;28;20034;-72
2023/04/19 06:35:31;;;;;;;29.45;13.93;;;9.20;99.90;;;;;;4987509;28;20026;-71
2023/04/19 06:37:58;;;;;;;32.55;14.27;;;9.20;99.90;;;;;;4991245;28;20128;-72
2023/04/19 06:40:25;;;;;;;31.80;15.02;;;9.20;99.90;;;;;;4989169;28;20513;-72
2023/04/19 06:42:52;;;;;;;39.28;19.15;;;9.20;99.90;;;;;;4972240;28;20039;-74
2023/04/19 06:45:18;;;;;;;33.22;15.82;;;9.40;99.90;;;;;;4972928;28;20062;-71
2023/04/19 06:47:43;;;;;;;32.08;14.70;;;9.50;99.90;;;;;;4972709;28;20475;-73
2023/04/19 06:50:10;;;;;;;31.10;13.45;;;9.50;99.90;;;;;;4981336;28;20118;-72
2023/04/19 06:52:35;;;;;;;33.78;14.77;;;9.40;99.90;;;;;;4991888;28;20498;-71
2023/04/19 06:55:01;;;;;;;31.92;14.77;;;9.40;99.90;;;;;;4991570;28;20030;-71
2023/04/19 06:57:27;;;;;;;33.63;15.52;;;9.50;99.90;;;;;;4991838;28;20066;-71
2023/04/19 06:59:54;;;;;;;29.45;13.55;;;9.60;99.90;;;;;;4990929;28;20442;-74
2023/04/19 07:02:19;;;;;;;28.83;13.65;;;9.50;99.90;;;;;;4991810;28;20041;-72
2023/04/19 07:04:46;;;;;;;34.08;15.63;;;9.50;99.90;;;;;;4991331;28;20030;-71
2023/04/19 07:07:12;;;;;;;31.30;13.95;;;9.50;99.90;;;;;;4989284;28;20407;-73
2023/04/19 07:09:38;;;;;;;29.67;14.77;;;9.40;99.90;;;;;;4991933;28;20034;-71
2023/04/19 07:12:04;;;;;;;30.77;14.70;;;9.50;99.90;;;;;;4991003;28;20106;-71
2023/04/19 07:14:30;;;;;;;33.38;14.48;;;9.50;99.90;;;;;;4991861;28;20033;-71
2023/04/19 07:16:56;;;;;;;37.85;16.05;;;9.60;99.90;;;;;;4990320;28;20030;-71
2023/04/19 07:19:21;;;;;;;30.40;14.52;;;9.60;99.90;;;;;;4991493;28;20038;-71
2023/04/19 07:21:47;;;;;;;49.65;20.63;;;9.70;99.90;;;;;;4990753;28;20145;-73
2023/04/19 07:24:13;;;;;;;38.30;18.10;;;9.70;99.90;;;;;;4990713;28;20034;-71
2023/04/19 07:26:39;;;;;;;44.40;19.55;;;9.70;99.90;;;;;;5006505;28;20062;-72
2023/04/19 07:29:04;;;;;;;34.75;15.57;;;9.80;99.90;;;;;;4989823;28;20034;-71
2023/04/19 07:31:30;;;;;;;33.20;15.23;;;9.90;99.90;;;;;;4991510;28;20041;-71
2023/04/19 07:33:56;;;;;;;32.10;14.50;;;9.90;99.90;;;;;;4990230;28;20332;-73
2023/04/19 07:36:21;;;;;;;28.85;13.65;;;9.80;99.90;;;;;;4990481;28;20479;-73
2023/04/19 07:38:47;;;;;;;28.35;13.95;;;9.90;99.90;;;;;;4989171;28;20041;-73
2023/04/19 07:41:13;;;;;;;27.48;13.15;;;9.90;99.90;;;;;;4990436;28;20026;-71
2023/04/19 07:43:38;;;;;;;30.95;12.65;;;9.90;99.90;;;;;;4991120;28;20042;-71
2023/04/19 07:46:11;;;;;;;30.02;13.13;;;10.00;99.90;;;;;;4990137;28;20058;-72
2023/04/19 07:48:37;;;;;;;31.15;12.70;;;10.00;99.90;;;;;;4990699;28;20031;-72
2023/04/19 07:51:10;;;;;;;28.05;12.85;;;10.10;99.90;;;;;;4990357;28;20022;-72
2023/04/19 07:53:36;;;;;;;25.83;12.40;;;10.10;99.90;;;;;;4990837;28;20549;-71
2023/04/19 07:56:02;;;;;;;25.80;11.90;;;9.90;99.90;;;;;;4988674;28;20038;-72
2023/04/19 07:58:28;;;;;;;25.90;12.68;;;9.90;99.90;;;;;;4990374;28;20157;-72
2023/04/19 08:00:54;;;;;;;25.65;12.15;;;10.00;99.90;;;;;;4990299;28;20030;-73
2023/04/19 08:03:19;;;;;;;26.83;11.82;;;10.00;99.90;;;;;;4990464;28;20448;-70
2023/04/19 08:05:45;;;;;;;25.52;11.40;;;10.10;99.90;;;;;;4990725;28;20034;-72
2023/04/19 08:08:11;;;;;;;25.92;12.40;;;10.20;99.90;;;;;;4988204;28;20072;-71
2023/04/19 08:10:36;;;;;;;23.15;11.98;;;10.50;99.90;;;;;;4990597;28;20038;-74
2023/04/19 08:13:02;;;;;;;23.58;11.57;;;10.80;99.90;;;;;;4989276;28;20363;-73
2023/04/19 08:15:28;;;;;;;25.67;11.90;;;11.00;99.90;;;;;;4990603;28;20029;-72
2023/04/19 08:17:53;;;;;;;26.45;11.52;;;11.10;99.90;;;;;;4990307;28;20086;-74
2023/04/19 08:20:20;;;;;;;27.33;12.23;;;11.10;99.90;;;;;;4990099;28;20030;-71
2023/04/19 08:22:46;;;;;;;24.13;12.00;;;10.80;99.90;;;;;;4989754;28;20042;-71
2023/04/19 08:25:12;;;;;;;23.73;11.32;;;10.80;99.90;;;;;;4989630;28;20031;-73
2023/04/19 08:27:37;;;;;;;24.75;11.73;;;10.90;99.90;;;;;;4990428;28;20085;-71
2023/04/19 08:30:03;;;;;;;24.52;12.25;;;11.10;99.90;;;;;;4989566;28;20027;-72
2023/04/19 08:32:29;;;;;;;26.25;11.55;;;11.20;99.90;;;;;;4990414;28;20057;-72
2023/04/19 08:34:56;;;;;;;25.38;12.23;;;11.20;99.90;;;;;;4989222;28;20038;-75
2023/04/19 08:37:21;;;;;;;29.02;13.13;;;11.30;99.90;;;;;;4983265;28;20082;-71
2023/04/19 08:39:47;;;;;;;25.30;12.13;;;11.30;99.90;;;;;;5005094;28;20357;-72
2023/04/19 08:42:12;;;;;;;25.65;12.07;;;11.30;99.90;;;;;;4989005;28;20122;-73
2023/04/19 08:44:39;;;;;;;24.02;11.75;;;11.40;99.90;;;;;;4990143;28;20038;-71
2023/04/19 08:47:05;;;;;;;24.05;11.65;;;11.40;99.90;;;;;;4989257;28;20023;-73
2023/04/19 08:49:37;;;;;;;27.25;14.93;;;11.50;99.90;;;;;;4989846;28;20042;-71
2023/04/19 08:52:05;;;;;;;25.00;11.27;;;11.60;99.90;;;;;;4988543;28;20048;-70
2023/04/19 08:54:31;;;;;;;31.23;14.85;;;11.60;99.90;;;;;;4989492;28;20038;-71
2023/04/19 08:57:00;;;;;;;29.52;13.77;;;11.70;99.90;;;;;;4988107;28;20057;-75
2023/04/19 08:59:27;;;;;;;27.20;13.50;;;11.80;99.90;;;;;;4988948;28;20935;-72
2023/04/19 09:01:55;;;;;;;28.45;13.73;;;11.80;99.90;;;;;;4988828;28;20490;-73
2023/04/19 09:04:21;;;;;;;24.83;12.85;;;11.80;99.90;;;;;;4989053;28;20034;-73
2023/04/19 09:06:47;;;;;;;27.30;12.70;;;11.90;99.90;;;;;;4989286;28;20097;-72
2023/04/19 09:09:20;;;;;;;26.65;13.93;;;11.90;99.90;;;;;;4988962;28;20030;-73
2023/04/19 09:11:46;;;;;;;28.45;12.57;;;12.20;99.90;;;;;;4989677;28;20062;-72
2023/04/19 09:14:14;;;;;;;23.00;12.30;;;12.40;99.90;;;;;;4988880;28;20373;-72
2023/04/19 09:16:41;;;;;;;25.55;11.93;;;12.30;99.90;;;;;;4988313;28;20049;-72
2023/04/19 09:19:11;;;;;;;24.60;12.50;;;12.20;99.90;;;;;;4987696;28;21004;-73
2023/04/19 09:21:37;;;;;;;27.17;12.73;;;12.20;99.90;;;;;;4989229;28;20442;-72
2023/04/19 09:24:04;;;;;;;27.27;12.75;;;11.90;99.90;;;;;;4988233;28;20033;-72
2023/04/19 09:26:30;;;;;;;32.88;12.55;;;11.80;99.90;;;;;;4989529;28;20034;-72
2023/04/19 09:29:06;;;;;;;24.73;12.52;;;11.80;99.90;;;;;;4989412;28;20031;-70
2023/04/19 09:31:34;;;;;;;28.90;12.68;;;11.70;99.90;;;;;;4988485;28;20212;-72
2023/04/19 09:34:20;;;;;;;23.45;12.13;;;11.50;99.90;;;;;;4987150;28;20036;-74
2023/04/19 09:36:47;;;;;;;24.73;12.55;;;11.50;99.90;;;;;;4987706;28;20034;-72
2023/04/19 09:39:13;;;;;;;25.67;13.00;;;11.50;99.90;;;;;;4988454;28;20176;-73
2023/04/19 09:41:55;;;;;;;27.63;12.70;;;11.40;99.90;;;;;;4989103;28;20027;-72
2023/04/19 09:44:21;;;;;;;26.35;13.68;;;11.50;99.90;;;;;;4987617;28;20369;-72
2023/04/19 09:46:49;;;;;;;27.92;13.50;;;11.70;99.90;;;;;;4989039;28;20107;-72
2023/04/19 09:49:24;;;;;;;24.52;12.60;;;11.60;99.90;;;;;;4970075;28;20517;-72
2023/04/19 09:51:55;;;;;;;22.58;11.48;;;11.60;99.90;;;;;;4989265;28;20038;-72
2023/04/19 09:54:22;;;;;;;29.38;14.15;;;11.70;99.90;;;;;;4988391;28;20022;-72
2023/04/19 09:56:49;;;;;;;25.75;12.75;;;11.50;99.90;;;;;;4989079;28;20034;-72
2023/04/19 09:59:15;;;;;;;28.73;13.00;;;11.50;99.90;;;;;;4988296;28;20117;-73
2023/04/19 10:01:45;;;;;;;27.70;13.23;;;11.60;99.90;;;;;;4989045;28;20117;-72
2023/04/19 10:04:21;;;;;;;30.70;13.65;;;11.60;99.90;;;;;;4987250;28;20035;-72
2023/04/19 10:06:49;;;;;;;30.60;13.93;;;11.60;99.90;;;;;;4988790;28;20073;-72
2023/04/19 10:09:16;;;;;;;34.83;13.50;;;11.40;99.90;;;;;;4987857;28;20042;-72
2023/04/19 10:11:47;;;;;;;25.15;12.63;;;11.40;99.90;;;;;;4974364;28;20040;-72
2023/04/19 10:14:15;;;;;;;33.05;12.82;;;11.30;99.90;;;;;;4992215;28;20421;-71
2023/04/19 10:16:40;;;;;;;27.40;12.43;;;11.40;99.90;;;;;;4992992;28;20088;-71
2023/04/19 10:19:12;;;;;;;24.13;11.93;;;11.30;99.90;;;;;;4991264;28;20137;-73
2023/04/19 10:21:40;;;;;;;25.90;12.23;;;11.40;99.90;;;;;;4992582;28;20309;-73
2023/04/19 10:24:07;;;;;;;25.35;12.40;;;11.40;99.90;;;;;;4990585;28;20030;-71
2023/04/19 10:27:01;;;;;;;25.05;11.85;;;11.40;99.90;;;;;;4992805;28;20075;-73
2023/04/19 10:29:55;;;;;;;22.50;11.30;;;11.30;99.90;;;;;;4991930;28;20487;-73
2023/04/19 10:32:42;;;;;;;23.55;11.90;;;11.30;99.90;;;;;;4991182;28;20030;-71
2023/04/19 10:35:18;;;;;;;24.67;11.82;;;11.30;99.90;;;;;;4987568;28;20414;-71
2023/04/19 10:38:08;;;;;;;25.85;11.40;;;11.20;99.90;;;;;;4992160;28;20034;-72
2023/04/19 10:40:55;;;;;;;27.40;13.07;;;11.10;99.90;;;;;;4992504;28;20092;-71
2023/04/19 10:43:22;;;;;;;28.10;13.05;;;10.90;99.90;;;;;;4991007;28;20054;-72
2023/04/19 10:45:48;;;;;;;25.92;12.05;;;11.00;99.90;;;;;;4992182;28;20372;-71
2023/04/19 10:48:29;;;;;;;25.92;12.80;;;11.00;99.90;;;;;;4990977;28;20030;-73
2023/04/19 10:50:59;;;;;;;27.98;12.38;;;11.00;99.90;;;;;;4992306;28;20026;-73
2023/04/19 10:53:43;;;;;;;23.17;12.13;;;11.00;99.90;;;;;;4991486;28;20459;-73
2023/04/19 10:56:09;;;;;;;28.75;12.68;;;10.90;99.90;;;;;;4991347;28;20030;-71
2023/04/19 10:59:00;;;;;;;31.67;14.20;;;10.90;99.90;;;;;;5007006;28;20030;-72
2023/04/19 11:01:38;;;;;;;30.83;14.15;;;10.80;99.90;;;;;;4991186;28;20088;-71
2023/04/19 11:04:09;;;;;;;30.63;14.93;;;10.70;99.90;;;;;;4990688;28;20084;-74
2023/04/19 11:06:55;;;;;;;;;;;10.60;99.90;;;;;;4990831;28;20524;-72
2023/04/19 11:09:29;;;;;;;32.75;15.50;;;10.60;99.90;;;;;;4991003;28;19925;-72
2023/04/19 11:12:13;;;;;;;33.20;16.65;;;10.50;99.90;;;;;;4991802;28;20043;-72
2023/04/19 11:14:42;;;;;;;37.40;16.63;;;10.40;99.90;;;;;;4991879;28;20030;-71
2023/04/19 11:17:15;;;;;;;38.15;17.67;;;10.30;99.90;;;;;;4990153;28;20026;-71
2023/04/19 11:19:55;;;;;;;40.10;17.88;;;10.20;99.90;;;;;;4990617;28;20030;-71
2023/04/19 11:22:34;;;;;;;42.63;18.73;;;10.00;99.90;;;;;;4990162;28;20382;-70
2023/04/19 11:25:11;;;;;;;43.45;19.52;;;10.00;99.90;;;;;;4991256;28;20034;-72
2023/04/19 11:27:39;;;;;;;39.80;19.05;;;9.90;99.90;;;;;;4991708;28;20045;-72
2023/04/19 11:30:11;;;;;;;42.15;19.33;;;9.90;99.90;;;;;;4990971;28;20038;-74
2023/04/19 11:32:43;;;;;;;47.85;19.83;;;9.70;99.90;;;;;;4991400;28;20376;-72
2023/04/19 11:35:09;;;;;;;42.40;19.00;;;9.60;99.90;;;;;;4989634;28;20022;-75
2023/04/19 11:37:36;;;;;;;38.55;18.60;;;9.60;99.90;;;;;;4990630;28;20043;-73
2023/04/19 11:40:03;;;;;;;38.95;18.20;;;9.60;99.90;;;;;;4991361;28;20117;-73
2023/04/19 11:42:29;;;;;;;38.33;18.42;;;9.50;99.90;;;;;;4990785;28;20030;-72
2023/04/19 11:44:57;;;;;;;37.38;17.48;;;9.50;99.90;;;;;;4990626;28;20041;-71
2023/04/19 11:47:23;;;;;;;39.38;17.80;;;9.50;99.90;;;;;;4990464;28;20037;-70
2023/04/19 11:49:48;;;;;;;41.05;17.80;;;9.50;99.90;;;;;;4991063;28;20022;-71
2023/04/19 11:52:21;;;;;;;35.47;17.27;;;9.40;99.90;;;;;;4990358;28;20038;-72
2023/04/19 11:54:47;;;;;;;41.42;17.95;;;9.30;99.90;;;;;;4991185;28;20030;-72
2023/04/19 11:57:12;;;;;;;36.72;17.65;;;9.40;99.90;;;;;;4984362;28;20033;-70
2023/04/19 11:59:38;;;;;;;38.88;17.85;;;9.30;99.90;;;;;;4988871;28;20403;-72
2023/04/19 12:02:11;;;;;;;36.85;18.10;;;9.30;99.90;;;;;;4990384;28;20084;-71
2023/04/19 12:04:38;;;;;;;37.67;17.10;;;9.30;99.90;;;;;;4990797;28;20031;-74
2023/04/19 12:07:05;;;;;;;40.50;18.42;;;9.20;99.90;;;;;;4990439;28;20402;-70
2023/04/19 12:09:35;;;;;;;42.55;20.02;;;9.20;99.90;;;;;;4990277;28;20035;-71
2023/04/19 12:12:01;;;;;;;38.87;19.87;;;9.20;99.90;;;;;;4990780;28;20038;-70
2023/04/19 12:14:28;;;;;;;44.20;18.90;;;9.10;99.90;;;;;;4988582;28;20030;-71
2023/04/19 12:17:22;;;;;;;41.90;19.60;;;9.00;99.90;;;;;;4990527;28;20038;-71
2023/04/19 12:19:48;;;;;;;38.85;18.40;;;9.00;99.90;;;;;;4977662;28;20403;-71
2023/04/19 12:22:16;;;;;;;41.42;19.58;;;8.90;99.90;;;;;;4989593;28;20035;-70
2023/04/19 12:24:42;;;;;;;42.45;19.35;;;8.90;99.90;;;;;;4988539;28;20630;-71
2023/04/19 12:27:08;;;;;;;38.85;19.88;;;9.00;99.90;;;;;;4990284;28;20103;-74
2023/04/19 12:29:35;;;;;;;40.75;19.02;;;9.00;99.90;;;;;;4990036;28;20035;-70
2023/04/19 12:32:01;;;;;;;34.63;17.20;;;9.10;99.90;;;;;;4989654;28;20042;-71
2023/04/19 12:34:26;;;;;;;34.13;17.45;;;9.10;99.90;;;;;;4988286;28;20026;-71